sensor_id;sensor_type;location;lat;lon;timestamp;P1;durP1;ratioP1;P2;durP2;ratioP2
8219;SDS011;4151;51.110;7.020;2022-11-27T00:01:49;12.40;;;2.70;;
8219;SDS011;4151;51.110;7.020;2022-11-27T00:04:15;12.67;;;4.20;;
8219;SDS011;4151;51.110;7.020;2022-11-27T00:06:40;14.60;;;4.60;;
8219;SDS011;4151;51.110;7.020;2022-11-27T00:09:07;10.63;;;2.83;;
8219;SDS011;4151;51.110;7.020;2022-11-27T00:11:36;11.50;;;3.50;;
8219;SDS011;4151;51.110;7.020;2022-11-27T00:14:04;8.67;;;3.47;;
8219;SDS011;4151;51.110;7.020;2022-11-27T00:16:29;8.97;;;3.67;;
8219;SDS011;4151;51.110;7.020;2022-11-27T00:18:55;10.60;;;3.00;;
8219;SDS011;4151;51.110;7.020;2022-11-27T00:21:22;8.53;;;3.00;;
8219;SDS011;4151;51.110;7.020;2022-11-27T00:23:51;9.70;;;2.90;;
8219;SDS011;4151;51.110;7.020;2022-11-27T00:26:18;14.70;;;4.30;;
8219;SDS011;4151;51.110;7.020;2022-11-27T00:28:44;6.37;;;2.73;;
8219;SDS011;4151;51.110;7.020;2022-11-27T00:31:14;7.33;;;2.77;;
8219;SDS011;4151;51.110;7.020;2022-11-27T00:33:41;35.47;;;4.00;;
8219;SDS011;4151;51.110;7.020;2022-11-27T00:36:08;11.70;;;3.83;;
8219;SDS011;4151;51.110;7.020;2022-11-27T00:38:34;20.13;;;3.77;;
8219;SDS011;4151;51.110;7.020;2022-11-27T00:41:08;9.90;;;3.30;;
8219;SDS011;4151;51.110;7.020;2022-11-27T00:43:42;12.93;;;3.87;;
8219;SDS011;4151;51.110;7.020;2022-11-27T00:46:08;7.00;;;2.83;;
8219;SDS011;4151;51.110;7.020;2022-11-27T00:48:34;7.50;;;2.80;;
8219;SDS011;4151;51.110;7.020;2022-11-27T00:51:04;12.67;;;3.67;;
8219;SDS011;4151;51.110;7.020;2022-11-27T00:53:31;8.40;;;2.67;;
8219;SDS011;4151;51.110;7.020;2022-11-27T00:55:58;25.33;;;3.90;;
8219;SDS011;4151;51.110;7.020;2022-11-27T00:58:24;5.03;;;2.53;;
8219;SDS011;4151;51.110;7.020;2022-11-27T01:00:54;6.37;;;2.93;;
8219;SDS011;4151;51.110;7.020;2022-11-27T01:03:21;14.00;;;3.80;;
8219;SDS011;4151;51.110;7.020;2022-11-27T01:05:46;8.03;;;3.40;;
8219;SDS011;4151;51.110;7.020;2022-11-27T01:08:12;8.30;;;3.07;;
8219;SDS011;4151;51.110;7.020;2022-11-27T01:10:38;16.17;;;3.07;;
8219;SDS011;4151;51.110;7.020;2022-11-27T01:13:03;8.13;;;3.30;;
8219;SDS011;4151;51.110;7.020;2022-11-27T01:15:29;4.50;;;2.70;;
8219;SDS011;4151;51.110;7.020;2022-11-27T01:17:54;6.80;;;2.90;;
8219;SDS011;4151;51.110;7.020;2022-11-27T01:20:20;3.80;;;2.13;;
8219;SDS011;4151;51.110;7.020;2022-11-27T01:22:45;16.73;;;3.17;;
8219;SDS011;4151;51.110;7.020;2022-11-27T01:25:11;10.67;;;3.03;;
8219;SDS011;4151;51.110;7.020;2022-11-27T01:27:36;14.33;;;3.20;;
8219;SDS011;4151;51.110;7.020;2022-11-27T01:30:02;13.13;;;4.40;;
8219;SDS011;4151;51.110;7.020;2022-11-27T01:32:28;4.60;;;2.87;;
8219;SDS011;4151;51.110;7.020;2022-11-27T01:34:53;10.00;;;3.30;;
8219;SDS011;4151;51.110;7.020;2022-11-27T01:37:19;10.93;;;2.90;;
8219;SDS011;4151;51.110;7.020;2022-11-27T01:39:44;10.90;;;3.00;;
8219;SDS011;4151;51.110;7.020;2022-11-27T01:42:10;12.83;;;4.40;;
8219;SDS011;4151;51.110;7.020;2022-11-27T01:47:02;20.73;;;3.80;;
8219;SDS011;4151;51.110;7.020;2022-11-27T01:54:35;5.53;;;3.30;;
8219;SDS011;4151;51.110;7.020;2022-11-27T01:57:09;11.93;;;3.50;;
8219;SDS011;4151;51.110;7.020;2022-11-27T01:59:42;16.23;;;4.80;;
8219;SDS011;4151;51.110;7.020;2022-11-27T02:02:09;10.70;;;4.30;;
8219;SDS011;4151;51.110;7.020;2022-11-27T02:04:35;14.23;;;3.43;;
8219;SDS011;4151;51.110;7.020;2022-11-27T02:07:00;11.03;;;4.97;;
8219;SDS011;4151;51.110;7.020;2022-11-27T02:09:27;7.73;;;3.80;;
8219;SDS011;4151;51.110;7.020;2022-11-27T02:14:31;13.53;;;4.50;;
8219;SDS011;4151;51.110;7.020;2022-11-27T02:17:16;13.47;;;4.10;;
8219;SDS011;4151;51.110;7.020;2022-11-27T02:30:50;10.10;;;4.67;;
8219;SDS011;4151;51.110;7.020;2022-11-27T02:33:20;26.13;;;5.10;;
8219;SDS011;4151;51.110;7.020;2022-11-27T02:35:52;11.03;;;4.80;;
8219;SDS011;4151;51.110;7.020;2022-11-27T02:38:29;13.80;;;4.50;;
8219;SDS011;4151;51.110;7.020;2022-11-27T02:43:29;10.30;;;4.77;;
8219;SDS011;4151;51.110;7.020;2022-11-27T02:46:00;19.20;;;6.17;;
8219;SDS011;4151;51.110;7.020;2022-11-27T02:48:30;14.60;;;5.60;;
8219;SDS011;4151;51.110;7.020;2022-11-27T02:51:01;15.90;;;6.23;;
8219;SDS011;4151;51.110;7.020;2022-11-27T02:53:30;17.20;;;5.60;;
8219;SDS011;4151;51.110;7.020;2022-11-27T02:56:01;16.33;;;5.70;;
8219;SDS011;4151;51.110;7.020;2022-11-27T02:58:32;16.67;;;6.57;;
8219;SDS011;4151;51.110;7.020;2022-11-27T03:01:00;19.93;;;7.40;;
8219;SDS011;4151;51.110;7.020;2022-11-27T03:03:30;17.00;;;7.00;;
8219;SDS011;4151;51.110;7.020;2022-11-27T03:06:05;15.13;;;6.27;;
8219;SDS011;4151;51.110;7.020;2022-11-27T03:11:14;12.13;;;6.50;;
8219;SDS011;4151;51.110;7.020;2022-11-27T03:13:44;18.17;;;7.40;;
8219;SDS011;4151;51.110;7.020;2022-11-27T03:16:27;22.00;;;8.00;;
8219;SDS011;4151;51.110;7.020;2022-11-27T03:24:01;16.20;;;6.90;;
8219;SDS011;4151;51.110;7.020;2022-11-27T03:26:27;18.47;;;7.07;;
8219;SDS011;4151;51.110;7.020;2022-11-27T03:28:53;23.63;;;9.00;;
8219;SDS011;4151;51.110;7.020;2022-11-27T03:31:20;14.47;;;6.30;;
8219;SDS011;4151;51.110;7.020;2022-11-27T03:33:47;26.90;;;7.63;;
8219;SDS011;4151;51.110;7.020;2022-11-27T03:36:15;18.63;;;6.93;;
8219;SDS011;4151;51.110;7.020;2022-11-27T03:38:42;13.93;;;7.00;;
8219;SDS011;4151;51.110;7.020;2022-11-27T03:41:16;15.30;;;6.53;;
8219;SDS011;4151;51.110;7.020;2022-11-27T03:43:51;17.60;;;7.23;;
8219;SDS011;4151;51.110;7.020;2022-11-27T03:46:59;19.80;;;7.90;;
8219;SDS011;4151;51.110;7.020;2022-11-27T03:52:23;23.20;;;7.60;;
8219;SDS011;4151;51.110;7.020;2022-11-27T03:55:05;16.97;;;7.27;;
8219;SDS011;4151;51.110;7.020;2022-11-27T03:57:37;14.43;;;7.17;;
8219;SDS011;4151;51.110;7.020;2022-11-27T04:00:08;17.10;;;7.20;;
8219;SDS011;4151;51.110;7.020;2022-11-27T04:02:39;16.93;;;7.10;;
8219;SDS011;4151;51.110;7.020;2022-11-27T04:05:08;24.20;;;8.10;;
8219;SDS011;4151;51.110;7.020;2022-11-27T04:07:34;21.40;;;8.13;;
8219;SDS011;4151;51.110;7.020;2022-11-27T04:10:00;17.20;;;8.27;;
8219;SDS011;4151;51.110;7.020;2022-11-27T04:12:25;20.13;;;8.47;;
8219;SDS011;4151;51.110;7.020;2022-11-27T04:14:51;20.13;;;7.23;;
8219;SDS011;4151;51.110;7.020;2022-11-27T04:17:16;18.23;;;8.20;;
8219;SDS011;4151;51.110;7.020;2022-11-27T04:19:42;16.27;;;6.67;;
8219;SDS011;4151;51.110;7.020;2022-11-27T04:22:07;20.93;;;8.23;;
8219;SDS011;4151;51.110;7.020;2022-11-27T04:24:33;16.40;;;7.40;;
8219;SDS011;4151;51.110;7.020;2022-11-27T04:26:58;16.97;;;6.83;;
8219;SDS011;4151;51.110;7.020;2022-11-27T04:29:24;16.50;;;7.93;;
8219;SDS011;4151;51.110;7.020;2022-11-27T04:31:49;18.60;;;7.60;;
8219;SDS011;4151;51.110;7.020;2022-11-27T04:34:15;20.03;;;7.73;;
8219;SDS011;4151;51.110;7.020;2022-11-27T04:36:40;20.77;;;7.70;;
8219;SDS011;4151;51.110;7.020;2022-11-27T04:39:06;22.27;;;8.83;;
8219;SDS011;4151;51.110;7.020;2022-11-27T04:41:32;20.73;;;8.63;;
8219;SDS011;4151;51.110;7.020;2022-11-27T04:43:57;17.60;;;7.67;;
8219;SDS011;4151;51.110;7.020;2022-11-27T04:46:23;16.20;;;7.40;;
8219;SDS011;4151;51.110;7.020;2022-11-27T04:48:48;23.70;;;8.37;;
8219;SDS011;4151;51.110;7.020;2022-11-27T04:51:14;17.27;;;7.23;;
8219;SDS011;4151;51.110;7.020;2022-11-27T04:53:39;15.00;;;7.63;;
8219;SDS011;4151;51.110;7.020;2022-11-27T04:56:05;15.60;;;6.77;;
8219;SDS011;4151;51.110;7.020;2022-11-27T04:58:30;18.00;;;7.67;;
8219;SDS011;4151;51.110;7.020;2022-11-27T05:00:56;15.63;;;8.03;;
8219;SDS011;4151;51.110;7.020;2022-11-27T05:03:21;22.53;;;9.57;;
8219;SDS011;4151;51.110;7.020;2022-11-27T05:05:53;21.13;;;7.13;;
8219;SDS011;4151;51.110;7.020;2022-11-27T05:08:22;19.07;;;7.90;;
8219;SDS011;4151;51.110;7.020;2022-11-27T05:11:05;18.93;;;7.17;;
8219;SDS011;4151;51.110;7.020;2022-11-27T05:13:32;14.50;;;7.00;;
8219;SDS011;4151;51.110;7.020;2022-11-27T05:15:58;14.90;;;6.30;;
8219;SDS011;4151;51.110;7.020;2022-11-27T05:18:24;15.93;;;6.97;;
8219;SDS011;4151;51.110;7.020;2022-11-27T05:20:59;20.70;;;6.90;;
8219;SDS011;4151;51.110;7.020;2022-11-27T05:23:27;16.40;;;6.87;;
8219;SDS011;4151;51.110;7.020;2022-11-27T05:25:53;14.37;;;6.50;;
8219;SDS011;4151;51.110;7.020;2022-11-27T05:28:20;15.50;;;7.27;;
8219;SDS011;4151;51.110;7.020;2022-11-27T05:30:46;17.93;;;6.30;;
8219;SDS011;4151;51.110;7.020;2022-11-27T05:33:12;18.40;;;6.90;;
8219;SDS011;4151;51.110;7.020;2022-11-27T05:35:38;17.23;;;7.00;;
8219;SDS011;4151;51.110;7.020;2022-11-27T05:38:04;19.37;;;7.17;;
8219;SDS011;4151;51.110;7.020;2022-11-27T05:40:30;16.77;;;7.47;;
8219;SDS011;4151;51.110;7.020;2022-11-27T05:42:56;13.33;;;6.30;;
8219;SDS011;4151;51.110;7.020;2022-11-27T05:45:21;15.50;;;6.57;;
8219;SDS011;4151;51.110;7.020;2022-11-27T05:47:47;27.13;;;7.57;;
8219;SDS011;4151;51.110;7.020;2022-11-27T05:50:12;14.20;;;6.77;;
8219;SDS011;4151;51.110;7.020;2022-11-27T05:52:38;17.90;;;7.13;;
8219;SDS011;4151;51.110;7.020;2022-11-27T05:55:03;21.30;;;6.93;;
8219;SDS011;4151;51.110;7.020;2022-11-27T05:57:29;21.27;;;7.30;;
8219;SDS011;4151;51.110;7.020;2022-11-27T05:59:55;16.20;;;7.23;;
8219;SDS011;4151;51.110;7.020;2022-11-27T06:02:22;20.57;;;6.97;;
8219;SDS011;4151;51.110;7.020;2022-11-27T06:04:47;15.57;;;7.27;;
8219;SDS011;4151;51.110;7.020;2022-11-27T06:07:13;18.27;;;6.90;;
8219;SDS011;4151;51.110;7.020;2022-11-27T06:09:39;17.60;;;6.87;;
8219;SDS011;4151;51.110;7.020;2022-11-27T06:12:04;20.57;;;7.33;;
8219;SDS011;4151;51.110;7.020;2022-11-27T06:14:30;16.33;;;7.20;;
8219;SDS011;4151;51.110;7.020;2022-11-27T06:16:58;15.37;;;6.67;;
8219;SDS011;4151;51.110;7.020;2022-11-27T06:19:23;14.67;;;7.20;;
8219;SDS011;4151;51.110;7.020;2022-11-27T06:21:49;19.03;;;6.50;;
8219;SDS011;4151;51.110;7.020;2022-11-27T06:24:14;11.30;;;6.47;;
8219;SDS011;4151;51.110;7.020;2022-11-27T06:26:40;21.47;;;6.90;;
8219;SDS011;4151;51.110;7.020;2022-11-27T06:29:06;23.50;;;8.57;;
8219;SDS011;4151;51.110;7.020;2022-11-27T06:31:33;14.30;;;6.77;;
8219;SDS011;4151;51.110;7.020;2022-11-27T06:33:59;12.30;;;6.00;;
8219;SDS011;4151;51.110;7.020;2022-11-27T06:36:26;18.80;;;6.20;;
8219;SDS011;4151;51.110;7.020;2022-11-27T06:38:54;16.87;;;7.43;;
8219;SDS011;4151;51.110;7.020;2022-11-27T06:41:22;16.80;;;6.50;;
8219;SDS011;4151;51.110;7.020;2022-11-27T06:43:50;17.43;;;8.00;;
8219;SDS011;4151;51.110;7.020;2022-11-27T06:46:17;12.70;;;6.40;;
8219;SDS011;4151;51.110;7.020;2022-11-27T06:48:45;18.03;;;5.83;;
8219;SDS011;4151;51.110;7.020;2022-11-27T06:51:13;13.17;;;5.57;;
8219;SDS011;4151;51.110;7.020;2022-11-27T06:53:41;12.30;;;6.20;;
8219;SDS011;4151;51.110;7.020;2022-11-27T06:56:08;13.87;;;7.30;;
8219;SDS011;4151;51.110;7.020;2022-11-27T06:58:36;17.43;;;6.77;;
8219;SDS011;4151;51.110;7.020;2022-11-27T07:01:02;16.17;;;6.83;;
8219;SDS011;4151;51.110;7.020;2022-11-27T07:03:33;22.57;;;6.80;;
8219;SDS011;4151;51.110;7.020;2022-11-27T07:05:59;11.10;;;6.10;;
8219;SDS011;4151;51.110;7.020;2022-11-27T07:08:26;20.00;;;7.30;;
8219;SDS011;4151;51.110;7.020;2022-11-27T07:10:51;14.20;;;5.40;;
8219;SDS011;4151;51.110;7.020;2022-11-27T07:13:17;14.73;;;6.37;;
8219;SDS011;4151;51.110;7.020;2022-11-27T07:15:42;19.47;;;6.70;;
8219;SDS011;4151;51.110;7.020;2022-11-27T07:18:09;11.80;;;6.53;;
8219;SDS011;4151;51.110;7.020;2022-11-27T07:20:34;22.40;;;6.57;;
8219;SDS011;4151;51.110;7.020;2022-11-27T07:23:00;14.27;;;5.63;;
8219;SDS011;4151;51.110;7.020;2022-11-27T07:25:26;15.70;;;6.60;;
8219;SDS011;4151;51.110;7.020;2022-11-27T07:27:51;20.77;;;6.60;;
8219;SDS011;4151;51.110;7.020;2022-11-27T07:30:17;10.90;;;5.87;;
8219;SDS011;4151;51.110;7.020;2022-11-27T07:32:42;19.83;;;6.93;;
8219;SDS011;4151;51.110;7.020;2022-11-27T07:35:08;16.37;;;6.77;;
8219;SDS011;4151;51.110;7.020;2022-11-27T07:37:34;12.40;;;6.20;;
8219;SDS011;4151;51.110;7.020;2022-11-27T07:40:00;12.73;;;6.57;;
8219;SDS011;4151;51.110;7.020;2022-11-27T07:42:26;12.63;;;6.30;;
8219;SDS011;4151;51.110;7.020;2022-11-27T07:44:52;12.33;;;5.87;;
8219;SDS011;4151;51.110;7.020;2022-11-27T07:47:17;12.10;;;5.57;;
8219;SDS011;4151;51.110;7.020;2022-11-27T07:49:43;15.83;;;5.30;;
8219;SDS011;4151;51.110;7.020;2022-11-27T07:52:08;19.33;;;5.77;;
8219;SDS011;4151;51.110;7.020;2022-11-27T07:54:34;13.77;;;5.90;;
8219;SDS011;4151;51.110;7.020;2022-11-27T07:57:00;11.83;;;5.80;;
8219;SDS011;4151;51.110;7.020;2022-11-27T07:59:26;10.10;;;5.23;;
8219;SDS011;4151;51.110;7.020;2022-11-27T08:01:51;10.77;;;5.87;;
8219;SDS011;4151;51.110;7.020;2022-11-27T08:04:18;11.93;;;4.97;;
8219;SDS011;4151;51.110;7.020;2022-11-27T08:06:44;14.07;;;5.67;;
8219;SDS011;4151;51.110;7.020;2022-11-27T08:09:09;16.87;;;6.37;;
8219;SDS011;4151;51.110;7.020;2022-11-27T08:11:35;13.83;;;5.60;;
8219;SDS011;4151;51.110;7.020;2022-11-27T08:14:02;21.00;;;4.53;;
8219;SDS011;4151;51.110;7.020;2022-11-27T08:16:29;12.10;;;4.90;;
8219;SDS011;4151;51.110;7.020;2022-11-27T08:18:56;17.57;;;6.00;;
8219;SDS011;4151;51.110;7.020;2022-11-27T08:21:22;12.50;;;4.70;;
8219;SDS011;4151;51.110;7.020;2022-11-27T08:23:48;19.50;;;5.50;;
8219;SDS011;4151;51.110;7.020;2022-11-27T08:26:14;10.40;;;4.30;;
8219;SDS011;4151;51.110;7.020;2022-11-27T08:28:40;13.40;;;4.60;;
8219;SDS011;4151;51.110;7.020;2022-11-27T08:31:06;15.10;;;5.17;;
8219;SDS011;4151;51.110;7.020;2022-11-27T08:33:33;16.50;;;4.90;;
8219;SDS011;4151;51.110;7.020;2022-11-27T08:35:59;9.80;;;4.50;;
8219;SDS011;4151;51.110;7.020;2022-11-27T08:38:25;11.37;;;4.70;;
8219;SDS011;4151;51.110;7.020;2022-11-27T08:43:21;8.00;;;4.60;;
8219;SDS011;4151;51.110;7.020;2022-11-27T08:45:47;10.00;;;3.93;;
8219;SDS011;4151;51.110;7.020;2022-11-27T08:48:13;12.73;;;4.37;;
8219;SDS011;4151;51.110;7.020;2022-11-27T08:50:38;11.43;;;4.90;;
8219;SDS011;4151;51.110;7.020;2022-11-27T08:53:04;11.10;;;4.93;;
8219;SDS011;4151;51.110;7.020;2022-11-27T08:55:29;11.47;;;5.00;;
8219;SDS011;4151;51.110;7.020;2022-11-27T08:57:55;13.67;;;4.53;;
8219;SDS011;4151;51.110;7.020;2022-11-27T09:00:20;15.27;;;5.10;;
8219;SDS011;4151;51.110;7.020;2022-11-27T09:02:46;7.90;;;5.00;;
8219;SDS011;4151;51.110;7.020;2022-11-27T09:05:12;8.50;;;5.00;;
8219;SDS011;4151;51.110;7.020;2022-11-27T09:07:37;10.50;;;4.40;;
8219;SDS011;4151;51.110;7.020;2022-11-27T09:10:05;8.83;;;4.87;;
8219;SDS011;4151;51.110;7.020;2022-11-27T09:12:31;10.50;;;3.87;;
8219;SDS011;4151;51.110;7.020;2022-11-27T09:14:57;10.57;;;5.07;;
8219;SDS011;4151;51.110;7.020;2022-11-27T09:17:22;10.40;;;4.50;;
8219;SDS011;4151;51.110;7.020;2022-11-27T09:19:48;10.20;;;4.87;;
8219;SDS011;4151;51.110;7.020;2022-11-27T09:22:13;11.53;;;4.60;;
8219;SDS011;4151;51.110;7.020;2022-11-27T09:36:16;19.37;;;5.17;;
8219;SDS011;4151;51.110;7.020;2022-11-27T09:38:44;11.40;;;5.10;;
8219;SDS011;4151;51.110;7.020;2022-11-27T09:43:48;9.00;;;5.10;;
8219;SDS011;4151;51.110;7.020;2022-11-27T09:46:20;13.87;;;6.03;;
8219;SDS011;4151;51.110;7.020;2022-11-27T09:48:52;10.20;;;4.90;;
8219;SDS011;4151;51.110;7.020;2022-11-27T09:51:26;11.57;;;5.97;;
8219;SDS011;4151;51.110;7.020;2022-11-27T09:56:46;12.87;;;5.33;;
8219;SDS011;4151;51.110;7.020;2022-11-27T09:59:16;10.53;;;4.80;;
8219;SDS011;4151;51.110;7.020;2022-11-27T10:01:43;9.67;;;5.13;;
8219;SDS011;4151;51.110;7.020;2022-11-27T10:04:10;23.30;;;4.50;;
8219;SDS011;4151;51.110;7.020;2022-11-27T10:09:28;9.43;;;5.70;;
8219;SDS011;4151;51.110;7.020;2022-11-27T10:15:10;17.70;;;8.37;;
8219;SDS011;4151;51.110;7.020;2022-11-27T10:17:38;13.60;;;5.93;;
8219;SDS011;4151;51.110;7.020;2022-11-27T10:20:17;12.30;;;4.93;;
8219;SDS011;4151;51.110;7.020;2022-11-27T10:25:38;11.23;;;5.47;;
8219;SDS011;4151;51.110;7.020;2022-11-27T10:28:27;8.30;;;4.53;;
8219;SDS011;4151;51.110;7.020;2022-11-27T10:31:16;10.00;;;5.40;;
8219;SDS011;4151;51.110;7.020;2022-11-27T10:33:55;9.97;;;5.67;;
8219;SDS011;4151;51.110;7.020;2022-11-27T10:36:35;15.10;;;5.73;;
8219;SDS011;4151;51.110;7.020;2022-11-27T10:39:05;18.23;;;5.00;;
8219;SDS011;4151;51.110;7.020;2022-11-27T10:42:20;8.53;;;4.50;;
8219;SDS011;4151;51.110;7.020;2022-11-27T10:44:32;11.33;;;5.17;;
8219;SDS011;4151;51.110;7.020;2022-11-27T10:47:18;13.80;;;5.13;;
8219;SDS011;4151;51.110;7.020;2022-11-27T10:49:46;7.70;;;5.30;;
8219;SDS011;4151;51.110;7.020;2022-11-27T10:52:14;8.50;;;5.50;;
8219;SDS011;4151;51.110;7.020;2022-11-27T10:54:41;15.30;;;4.90;;
8219;SDS011;4151;51.110;7.020;2022-11-27T11:02:31;11.90;;;5.07;;
8219;SDS011;4151;51.110;7.020;2022-11-27T11:07:41;10.13;;;4.33;;
8219;SDS011;4151;51.110;7.020;2022-11-27T11:10:21;6.97;;;4.27;;
8219;SDS011;4151;51.110;7.020;2022-11-27T11:13:02;11.40;;;4.47;;
8219;SDS011;4151;51.110;7.020;2022-11-27T11:15:51;8.93;;;4.07;;
8219;SDS011;4151;51.110;7.020;2022-11-27T11:18:30;9.40;;;4.07;;
8219;SDS011;4151;51.110;7.020;2022-11-27T11:20:58;13.50;;;4.80;;
8219;SDS011;4151;51.110;7.020;2022-11-27T11:23:27;13.73;;;4.80;;
8219;SDS011;4151;51.110;7.020;2022-11-27T11:25:56;20.33;;;4.53;;
8219;SDS011;4151;51.110;7.020;2022-11-27T11:28:26;56.10;;;18.73;;
8219;SDS011;4151;51.110;7.020;2022-11-27T11:30:58;14.90;;;6.47;;
8219;SDS011;4151;51.110;7.020;2022-11-27T11:33:27;12.07;;;5.87;;
8219;SDS011;4151;51.110;7.020;2022-11-27T11:35:54;6.87;;;4.03;;
8219;SDS011;4151;51.110;7.020;2022-11-27T11:38:29;11.93;;;4.63;;
8219;SDS011;4151;51.110;7.020;2022-11-27T11:41:03;7.07;;;4.67;;
8219;SDS011;4151;51.110;7.020;2022-11-27T11:43:31;10.60;;;5.37;;
8219;SDS011;4151;51.110;7.020;2022-11-27T11:46:07;9.90;;;4.77;;
8219;SDS011;4151;51.110;7.020;2022-11-27T11:48:51;10.27;;;4.77;;
8219;SDS011;4151;51.110;7.020;2022-11-27T11:51:21;7.53;;;4.50;;
8219;SDS011;4151;51.110;7.020;2022-11-27T11:54:06;10.93;;;4.80;;
8219;SDS011;4151;51.110;7.020;2022-11-27T11:56:54;6.83;;;4.37;;
8219;SDS011;4151;51.110;7.020;2022-11-27T12:04:54;9.90;;;3.87;;
8219;SDS011;4151;51.110;7.020;2022-11-27T12:19:15;8.80;;;3.17;;
8219;SDS011;4151;51.110;7.020;2022-11-27T12:39:17;8.90;;;3.70;;
8219;SDS011;4151;51.110;7.020;2022-11-27T12:47:39;5.10;;;2.90;;
8219;SDS011;4151;51.110;7.020;2022-11-27T12:50:18;7.03;;;4.23;;
8219;SDS011;4151;51.110;7.020;2022-11-27T12:52:45;7.57;;;3.20;;
8219;SDS011;4151;51.110;7.020;2022-11-27T12:55:20;5.77;;;4.00;;
8219;SDS011;4151;51.110;7.020;2022-11-27T12:57:52;4.30;;;2.60;;
8219;SDS011;4151;51.110;7.020;2022-11-27T13:00:36;8.77;;;3.27;;
8219;SDS011;4151;51.110;7.020;2022-11-27T13:05:50;3.03;;;2.63;;
8219;SDS011;4151;51.110;7.020;2022-11-27T13:11:04;4.47;;;2.50;;
8219;SDS011;4151;51.110;7.020;2022-11-27T13:13:41;6.60;;;2.93;;
8219;SDS011;4151;51.110;7.020;2022-11-27T13:16:14;8.00;;;3.13;;
8219;SDS011;4151;51.110;7.020;2022-11-27T13:21:37;5.40;;;3.00;;
8219;SDS011;4151;51.110;7.020;2022-11-27T13:24:04;6.60;;;2.67;;
8219;SDS011;4151;51.110;7.020;2022-11-27T13:26:34;8.63;;;2.77;;
8219;SDS011;4151;51.110;7.020;2022-11-27T13:29:07;4.60;;;2.60;;
8219;SDS011;4151;51.110;7.020;2022-11-27T13:31:38;5.13;;;2.30;;
8219;SDS011;4151;51.110;7.020;2022-11-27T13:34:07;6.90;;;2.70;;
8219;SDS011;4151;51.110;7.020;2022-11-27T13:36:43;5.97;;;3.10;;
8219;SDS011;4151;51.110;7.020;2022-11-27T13:39:22;4.80;;;2.40;;
8219;SDS011;4151;51.110;7.020;2022-11-27T13:41:48;4.63;;;2.67;;
8219;SDS011;4151;51.110;7.020;2022-11-27T13:44:26;4.10;;;2.70;;
8219;SDS011;4151;51.110;7.020;2022-11-27T13:46:54;7.60;;;3.03;;
8219;SDS011;4151;51.110;7.020;2022-11-27T13:49:27;4.80;;;2.80;;
8219;SDS011;4151;51.110;7.020;2022-11-27T13:54:58;7.60;;;2.80;;
8219;SDS011;4151;51.110;7.020;2022-11-27T13:57:26;6.70;;;2.77;;
8219;SDS011;4151;51.110;7.020;2022-11-27T14:00:00;9.07;;;4.50;;
8219;SDS011;4151;51.110;7.020;2022-11-27T14:05:06;8.60;;;3.00;;
8219;SDS011;4151;51.110;7.020;2022-11-27T14:07:36;7.63;;;3.03;;
8219;SDS011;4151;51.110;7.020;2022-11-27T14:10:06;5.90;;;2.97;;
8219;SDS011;4151;51.110;7.020;2022-11-27T14:12:35;6.80;;;3.30;;
8219;SDS011;4151;51.110;7.020;2022-11-27T14:17:44;5.80;;;2.73;;
8219;SDS011;4151;51.110;7.020;2022-11-27T14:22:45;5.03;;;2.87;;
8219;SDS011;4151;51.110;7.020;2022-11-27T14:25:16;9.23;;;3.33;;
8219;SDS011;4151;51.110;7.020;2022-11-27T14:27:42;7.23;;;3.20;;
8219;SDS011;4151;51.110;7.020;2022-11-27T14:30:51;3.20;;;2.50;;
8219;SDS011;4151;51.110;7.020;2022-11-27T14:32:59;9.17;;;3.20;;
8219;SDS011;4151;51.110;7.020;2022-11-27T14:35:28;3.13;;;2.37;;
8219;SDS011;4151;51.110;7.020;2022-11-27T14:38:05;6.20;;;2.70;;
8219;SDS011;4151;51.110;7.020;2022-11-27T14:40:32;4.57;;;2.83;;
8219;SDS011;4151;51.110;7.020;2022-11-27T14:43:13;3.67;;;2.17;;
8219;SDS011;4151;51.110;7.020;2022-11-27T14:45:41;5.90;;;2.57;;
8219;SDS011;4151;51.110;7.020;2022-11-27T14:48:14;9.60;;;2.77;;
8219;SDS011;4151;51.110;7.020;2022-11-27T14:50:46;3.70;;;2.60;;
8219;SDS011;4151;51.110;7.020;2022-11-27T14:53:12;4.43;;;2.50;;
8219;SDS011;4151;51.110;7.020;2022-11-27T14:55:38;4.03;;;2.70;;
8219;SDS011;4151;51.110;7.020;2022-11-27T14:58:04;4.93;;;2.53;;
8219;SDS011;4151;51.110;7.020;2022-11-27T15:00:30;8.43;;;2.60;;
8219;SDS011;4151;51.110;7.020;2022-11-27T15:03:05;6.83;;;3.20;;
8219;SDS011;4151;51.110;7.020;2022-11-27T15:05:32;5.23;;;3.23;;
8219;SDS011;4151;51.110;7.020;2022-11-27T15:08:00;8.93;;;3.87;;
8219;SDS011;4151;51.110;7.020;2022-11-27T15:13:00;10.73;;;5.23;;
8219;SDS011;4151;51.110;7.020;2022-11-27T15:15:28;19.83;;;9.53;;
8219;SDS011;4151;51.110;7.020;2022-11-27T15:18:06;14.27;;;3.73;;
8219;SDS011;4151;51.110;7.020;2022-11-27T15:20:34;9.57;;;3.97;;
8219;SDS011;4151;51.110;7.020;2022-11-27T15:25:51;17.97;;;8.23;;
8219;SDS011;4151;51.110;7.020;2022-11-27T15:31:02;11.70;;;4.80;;
8219;SDS011;4151;51.110;7.020;2022-11-27T15:33:53;9.50;;;4.23;;
8219;SDS011;4151;51.110;7.020;2022-11-27T15:36:19;6.03;;;3.37;;
8219;SDS011;4151;51.110;7.020;2022-11-27T15:38:46;15.50;;;5.70;;
8219;SDS011;4151;51.110;7.020;2022-11-27T15:41:29;12.03;;;4.57;;
8219;SDS011;4151;51.110;7.020;2022-11-27T15:43:55;7.13;;;4.40;;
8219;SDS011;4151;51.110;7.020;2022-11-27T15:46:22;7.80;;;4.07;;
8219;SDS011;4151;51.110;7.020;2022-11-27T15:48:54;7.03;;;3.80;;
8219;SDS011;4151;51.110;7.020;2022-11-27T15:51:20;6.40;;;3.57;;
8219;SDS011;4151;51.110;7.020;2022-11-27T15:53:46;11.43;;;3.70;;
8219;SDS011;4151;51.110;7.020;2022-11-27T15:56:13;13.30;;;5.63;;
8219;SDS011;4151;51.110;7.020;2022-11-27T15:58:40;10.20;;;3.97;;
8219;SDS011;4151;51.110;7.020;2022-11-27T16:01:06;7.20;;;3.90;;
8219;SDS011;4151;51.110;7.020;2022-11-27T16:03:31;17.33;;;5.20;;
8219;SDS011;4151;51.110;7.020;2022-11-27T16:06:01;14.37;;;6.57;;
8219;SDS011;4151;51.110;7.020;2022-11-27T16:08:31;19.80;;;6.37;;
8219;SDS011;4151;51.110;7.020;2022-11-27T16:11:00;8.30;;;4.27;;
8219;SDS011;4151;51.110;7.020;2022-11-27T16:13:27;12.27;;;5.90;;
8219;SDS011;4151;51.110;7.020;2022-11-27T16:15:54;6.23;;;3.53;;
8219;SDS011;4151;51.110;7.020;2022-11-27T16:18:19;9.40;;;3.60;;
8219;SDS011;4151;51.110;7.020;2022-11-27T16:20:45;7.57;;;4.33;;
8219;SDS011;4151;51.110;7.020;2022-11-27T16:23:10;8.17;;;5.53;;
8219;SDS011;4151;51.110;7.020;2022-11-27T16:25:36;8.40;;;4.33;;
8219;SDS011;4151;51.110;7.020;2022-11-27T16:28:03;13.80;;;6.00;;
8219;SDS011;4151;51.110;7.020;2022-11-27T16:30:28;8.83;;;4.70;;
8219;SDS011;4151;51.110;7.020;2022-11-27T16:32:55;5.30;;;4.30;;
8219;SDS011;4151;51.110;7.020;2022-11-27T16:35:20;7.90;;;3.90;;
8219;SDS011;4151;51.110;7.020;2022-11-27T16:37:46;7.07;;;4.37;;
8219;SDS011;4151;51.110;7.020;2022-11-27T16:40:11;10.63;;;4.13;;
8219;SDS011;4151;51.110;7.020;2022-11-27T16:42:37;4.20;;;3.43;;
8219;SDS011;4151;51.110;7.020;2022-11-27T16:45:03;5.10;;;3.30;;
8219;SDS011;4151;51.110;7.020;2022-11-27T16:47:29;5.07;;;3.30;;
8219;SDS011;4151;51.110;7.020;2022-11-27T16:49:55;7.23;;;2.87;;
8219;SDS011;4151;51.110;7.020;2022-11-27T16:52:20;7.20;;;2.60;;
8219;SDS011;4151;51.110;7.020;2022-11-27T16:54:46;12.10;;;4.10;;
8219;SDS011;4151;51.110;7.020;2022-11-27T16:57:12;8.13;;;3.87;;
8219;SDS011;4151;51.110;7.020;2022-11-27T16:59:37;6.83;;;3.27;;
8219;SDS011;4151;51.110;7.020;2022-11-27T17:02:03;6.23;;;3.03;;
8219;SDS011;4151;51.110;7.020;2022-11-27T17:04:29;7.00;;;4.27;;
8219;SDS011;4151;51.110;7.020;2022-11-27T17:06:55;7.50;;;3.30;;
8219;SDS011;4151;51.110;7.020;2022-11-27T17:09:20;4.70;;;3.00;;
8219;SDS011;4151;51.110;7.020;2022-11-27T17:11:49;4.37;;;2.77;;
8219;SDS011;4151;51.110;7.020;2022-11-27T17:14:15;5.57;;;3.10;;
8219;SDS011;4151;51.110;7.020;2022-11-27T17:16:42;8.57;;;3.80;;
8219;SDS011;4151;51.110;7.020;2022-11-27T17:19:09;6.37;;;3.20;;
8219;SDS011;4151;51.110;7.020;2022-11-27T17:21:37;4.70;;;3.17;;
8219;SDS011;4151;51.110;7.020;2022-11-27T17:24:04;6.53;;;3.33;;
8219;SDS011;4151;51.110;7.020;2022-11-27T17:26:31;9.53;;;3.90;;
8219;SDS011;4151;51.110;7.020;2022-11-27T17:28:58;6.07;;;2.93;;
8219;SDS011;4151;51.110;7.020;2022-11-27T17:31:26;7.07;;;3.67;;
8219;SDS011;4151;51.110;7.020;2022-11-27T17:33:56;3.97;;;2.80;;
8219;SDS011;4151;51.110;7.020;2022-11-27T17:36:23;6.20;;;3.47;;